createdAt,value
2022-12-14T00:01:25.534Z,-0.15
2022-12-14T00:03:53.107Z,-0.18
2022-12-14T00:06:27.788Z,-0.19
2022-12-14T00:08:57.438Z,-0.20
2022-12-14T00:11:24.793Z,-0.24
2022-12-14T00:13:54.352Z,-0.26
2022-12-14T00:16:22.195Z,-0.28
2022-12-14T00:18:54.104Z,-0.30
2022-12-14T00:21:21.777Z,-0.32
2022-12-14T00:23:50.372Z,-0.34
2022-12-14T00:26:25.069Z,-0.37
2022-12-14T00:28:54.377Z,-0.37
2022-12-14T00:31:22.020Z,-0.39
2022-12-14T00:33:49.290Z,-0.41
2022-12-14T00:36:16.257Z,-0.42
2022-12-14T00:38:43.437Z,-0.43
2022-12-14T00:41:11.373Z,-0.45
2022-12-14T00:43:38.647Z,-0.47
2022-12-14T00:46:06.215Z,-0.47
2022-12-14T00:48:33.855Z,-0.49
2022-12-14T00:51:00.903Z,-0.50
2022-12-14T00:53:28.568Z,-0.51
2022-12-14T00:55:55.542Z,-0.54
2022-12-14T00:58:25.358Z,-0.55
2022-12-14T01:01:04.643Z,-0.57
2022-12-14T01:03:32.520Z,-0.58
2022-12-14T01:06:00.175Z,-0.59
2022-12-14T01:08:35.534Z,-0.60
2022-12-14T01:11:09.807Z,-0.60
2022-12-14T01:13:38.749Z,-0.61
2022-12-14T01:16:08.341Z,-0.62
2022-12-14T01:18:36.803Z,-0.62
2022-12-14T01:21:22.686Z,-0.63
2022-12-14T01:23:52.276Z,-0.61
2022-12-14T01:26:20.664Z,-0.63
2022-12-14T01:28:52.891Z,-0.67
2022-12-14T01:31:23.822Z,-0.68
2022-12-14T01:33:51.141Z,-0.70
2022-12-14T01:36:24.579Z,-0.70
2022-12-14T01:38:58.550Z,-0.71
2022-12-14T01:41:38.892Z,-0.72
2022-12-14T01:44:09.523Z,-0.72
2022-12-14T01:46:43.919Z,-0.73
2022-12-14T01:49:19.737Z,-0.71
2022-12-14T01:52:01.432Z,-0.71
2022-12-14T01:54:35.461Z,-0.70
2022-12-14T01:57:02.881Z,-0.70
2022-12-14T01:59:45.987Z,-0.69
2022-12-14T02:02:15.405Z,-0.68
2022-12-14T02:04:53.946Z,-0.68
2022-12-14T02:07:25.144Z,-0.69
2022-12-14T02:10:01.309Z,-0.69
2022-12-14T02:12:34.450Z,-0.69
2022-12-14T02:15:03.873Z,-0.69
2022-12-14T02:17:34.083Z,-0.70
2022-12-14T02:20:04.623Z,-0.69
2022-12-14T02:22:53.000Z,-0.69
2022-12-14T02:25:26.404Z,-0.68
2022-12-14T02:28:09.254Z,-0.68
2022-12-14T02:30:41.129Z,-0.68
2022-12-14T02:33:34.851Z,-0.70
2022-12-14T02:36:07.964Z,-0.70
2022-12-14T02:38:40.419Z,-0.71
2022-12-14T02:41:38.676Z,-0.72
2022-12-14T02:44:30.638Z,-0.73
2022-12-14T02:47:06.662Z,-0.76
2022-12-14T02:49:49.329Z,-0.79
2022-12-14T02:52:32.009Z,-0.82
2022-12-14T02:55:16.988Z,-0.85
2022-12-14T02:58:16.367Z,-0.90
2022-12-14T03:00:44.159Z,-0.93
2022-12-14T03:03:11.443Z,-0.97
2022-12-14T03:08:47.779Z,-1.06
2022-12-14T03:11:21.129Z,-1.12
2022-12-14T03:13:59.291Z,-1.16
2022-12-14T03:16:50.749Z,-1.20
2022-12-14T03:19:31.487Z,-1.26
2022-12-14T03:22:06.513Z,-1.34
2022-12-14T03:24:41.555Z,-1.39
2022-12-14T03:27:16.797Z,-1.45
2022-12-14T03:30:43.763Z,-1.51
2022-12-14T03:33:13.991Z,-1.57
2022-12-14T03:36:00.508Z,-1.62
2022-12-14T03:38:42.873Z,-1.70
2022-12-14T03:41:29.675Z,-1.74
2022-12-14T03:44:25.707Z,-1.80
2022-12-14T03:47:04.744Z,-1.84
2022-12-14T03:49:45.644Z,-1.87
2022-12-14T03:52:22.422Z,-1.92
2022-12-14T03:55:19.394Z,-1.97
2022-12-14T03:57:57.977Z,-2.00
2022-12-14T04:00:28.838Z,-2.03
2022-12-14T04:03:27.400Z,-2.06
2022-12-14T04:06:05.055Z,-2.09
2022-12-14T04:08:47.028Z,-2.12
2022-12-14T04:11:35.503Z,-2.15
2022-12-14T04:14:32.477Z,-2.17
2022-12-14T04:17:22.538Z,-2.21
2022-12-14T04:19:57.398Z,-2.23
2022-12-14T04:22:29.362Z,-2.24
2022-12-14T04:25:21.640Z,-2.25
2022-12-14T04:28:34.983Z,-2.27
2022-12-14T04:31:07.406Z,-2.27
2022-12-14T04:33:48.398Z,-2.27
2022-12-14T04:36:32.186Z,-2.26
2022-12-14T04:39:03.820Z,-2.24
2022-12-14T04:41:36.747Z,-2.23
2022-12-14T04:44:15.889Z,-2.21
2022-12-14T04:46:44.332Z,-2.17
2022-12-14T04:49:35.105Z,-2.13
2022-12-14T04:52:27.494Z,-2.09
2022-12-14T04:55:05.035Z,-2.05
2022-12-14T04:57:36.724Z,-2.00
2022-12-14T05:00:05.681Z,-1.99
2022-12-14T05:02:51.456Z,-1.94
2022-12-14T05:05:25.062Z,-1.90
2022-12-14T05:08:39.259Z,-1.88
2022-12-14T05:14:22.096Z,-1.90
2022-12-14T05:16:50.284Z,-1.92
2022-12-14T05:19:17.132Z,-1.95
2022-12-14T05:21:49.699Z,-1.95
2022-12-14T05:24:17.165Z,-1.98
2022-12-14T05:26:44.382Z,-1.98
2022-12-14T05:29:11.282Z,-2.00
2022-12-14T05:31:38.088Z,-2.01
2022-12-14T05:34:04.754Z,-2.01
2022-12-14T05:36:31.262Z,-2.03
2022-12-14T05:38:57.692Z,-2.05
2022-12-14T05:41:24.259Z,-2.06
2022-12-14T05:43:50.866Z,-2.08
2022-12-14T05:46:18.752Z,-2.10
2022-12-14T05:48:49.218Z,-2.11
2022-12-14T05:51:16.451Z,-2.13
2022-12-14T05:53:43.151Z,-2.14
2022-12-14T05:56:10.434Z,-2.17
2022-12-14T05:58:38.293Z,-2.18
2022-12-14T06:01:07.035Z,-2.19
2022-12-14T06:03:33.877Z,-2.19
2022-12-14T06:06:05.424Z,-2.20
2022-12-14T06:08:40.419Z,-2.21
2022-12-14T06:11:13.272Z,-2.23
2022-12-14T06:13:40.924Z,-2.24
2022-12-14T06:16:28.353Z,-2.26
2022-12-14T06:18:57.832Z,-2.27
2022-12-14T06:21:27.734Z,-2.27
2022-12-14T06:24:05.409Z,-2.27
2022-12-14T06:26:41.898Z,-2.28
2022-12-14T06:29:13.796Z,-2.29
2022-12-14T06:31:40.229Z,-2.30
2022-12-14T06:34:06.720Z,-2.33
2022-12-14T06:36:38.673Z,-2.34
2022-12-14T06:39:16.985Z,-2.35
2022-12-14T06:41:43.887Z,-2.34
2022-12-14T06:44:14.523Z,-2.33
2022-12-14T06:46:42.827Z,-2.30
2022-12-14T06:49:13.956Z,-2.28
2022-12-14T06:51:41.127Z,-2.27
2022-12-14T06:54:09.427Z,-2.25
2022-12-14T06:56:37.000Z,-2.23
2022-12-14T06:59:05.288Z,-2.23
2022-12-14T07:01:31.940Z,-2.22
2022-12-14T07:03:59.486Z,-2.23
2022-12-14T07:06:28.363Z,-2.22
2022-12-14T07:08:56.628Z,-2.21
2022-12-14T07:11:23.568Z,-2.23
2022-12-14T07:13:50.084Z,-2.24
2022-12-14T07:16:19.104Z,-2.25
2022-12-14T07:18:45.614Z,-2.25
2022-12-14T07:21:14.413Z,-2.27
2022-12-14T07:23:42.690Z,-2.28
2022-12-14T07:26:14.759Z,-2.29
2022-12-14T07:28:42.606Z,-2.30
2022-12-14T07:31:27.847Z,-2.33
2022-12-14T07:33:56.238Z,-2.34
2022-12-14T07:36:24.381Z,-2.37
2022-12-14T07:38:51.821Z,-2.38
2022-12-14T07:41:23.082Z,-2.39
2022-12-14T07:43:51.517Z,-2.41
2022-12-14T07:46:21.386Z,-2.43
2022-12-14T07:48:58.936Z,-2.44
2022-12-14T07:51:28.660Z,-2.46
2022-12-14T07:53:55.636Z,-2.47
2022-12-14T07:56:36.038Z,-2.47
2022-12-14T07:59:05.025Z,-2.47
2022-12-14T08:01:33.905Z,-2.48
2022-12-14T08:04:06.093Z,-2.48
2022-12-14T08:06:33.187Z,-2.48
2022-12-14T08:09:00.828Z,-2.48
2022-12-14T08:11:27.867Z,-2.47
2022-12-14T08:13:56.362Z,-2.46
2022-12-14T08:16:23.638Z,-2.47
2022-12-14T08:18:52.306Z,-2.47
2022-12-14T08:21:25.913Z,-2.48
2022-12-14T08:24:02.023Z,-2.47
2022-12-14T08:26:34.930Z,-2.47
2022-12-14T08:29:02.193Z,-2.46
2022-12-14T08:31:28.925Z,-2.46
2022-12-14T08:33:55.714Z,-2.47
2022-12-14T08:36:28.046Z,-2.47
2022-12-14T08:38:56.530Z,-2.48
2022-12-14T08:41:23.951Z,-2.47
2022-12-14T08:43:51.638Z,-2.46
2022-12-14T08:46:18.854Z,-2.45
2022-12-14T08:48:45.437Z,-2.42
2022-12-14T08:51:11.826Z,-2.40
2022-12-14T08:53:38.879Z,-2.37
2022-12-14T08:56:12.589Z,-2.36
2022-12-14T08:58:40.770Z,-2.33
2022-12-14T09:01:32.301Z,-2.30
2022-12-14T09:04:16.893Z,-2.28
2022-12-14T09:06:43.239Z,-2.27
2022-12-14T09:09:16.506Z,-2.25
2022-12-14T09:11:44.644Z,-2.23
2022-12-14T09:14:11.028Z,-2.22
2022-12-14T09:16:37.534Z,-2.20
2022-12-14T09:19:03.977Z,-2.17
2022-12-14T09:21:31.510Z,-2.17
2022-12-14T09:23:59.859Z,-2.13
2022-12-14T09:26:27.055Z,-2.12
2022-12-14T09:28:55.772Z,-2.09
2022-12-14T09:31:24.297Z,-2.08
2022-12-14T09:33:51.342Z,-2.07
2022-12-14T09:36:20.498Z,-2.05
2022-12-14T09:38:51.497Z,-2.02
2022-12-14T09:41:46.609Z,-2.00
2022-12-14T09:44:43.392Z,-1.93
2022-12-14T09:47:36.242Z,-1.86
2022-12-14T09:50:11.210Z,-1.79
2022-12-14T09:52:45.512Z,-1.71
2022-12-14T09:55:36.066Z,-1.63
2022-12-14T09:58:20.415Z,-1.53
2022-12-14T10:01:02.489Z,-1.43
2022-12-14T10:03:53.396Z,-1.35
2022-12-14T10:06:25.686Z,-1.24
2022-12-14T10:09:12.041Z,-1.14
2022-12-14T10:11:52.920Z,-1.03
2022-12-14T10:14:44.540Z,-0.92
2022-12-14T10:17:34.898Z,-0.80
2022-12-14T10:20:23.836Z,-0.68
2022-12-14T10:22:52.621Z,-0.55
2022-12-14T10:25:24.241Z,-0.44
2022-12-14T10:28:10.916Z,-0.30
2022-12-14T10:30:37.815Z,-0.18
2022-12-14T10:33:26.526Z,-0.04
2022-12-14T10:35:55.325Z,0.09
2022-12-14T10:38:31.408Z,0.20
2022-12-14T10:41:21.786Z,0.33
2022-12-14T10:43:59.533Z,0.44
2022-12-14T10:46:45.318Z,0.55
2022-12-14T10:49:23.957Z,0.65
2022-12-14T10:51:58.632Z,0.75
2022-12-14T10:54:38.957Z,0.85
2022-12-14T10:57:05.727Z,0.94
2022-12-14T10:59:40.761Z,1.02
2022-12-14T11:02:27.883Z,1.12
2022-12-14T11:05:00.461Z,1.20
2022-12-14T11:07:33.146Z,1.26
2022-12-14T11:10:23.628Z,1.35
2022-12-14T11:13:06.906Z,1.42
2022-12-14T11:15:40.183Z,1.49
2022-12-14T11:18:15.797Z,1.53
2022-12-14T11:21:04.388Z,1.59
2022-12-14T11:23:37.771Z,1.65
2022-12-14T11:26:08.921Z,1.70
2022-12-14T11:28:37.978Z,1.73
2022-12-14T11:31:28.769Z,1.79
2022-12-14T11:33:57.991Z,1.81
2022-12-14T11:36:32.946Z,1.83
2022-12-14T11:39:02.397Z,1.86
2022-12-14T11:41:40.421Z,1.89
2022-12-14T11:44:15.818Z,1.91
2022-12-14T11:47:11.381Z,1.92
2022-12-14T11:49:37.624Z,1.95
2022-12-14T11:52:13.051Z,1.97
2022-12-14T11:54:42.309Z,2.00
2022-12-14T11:57:38.641Z,2.02
2022-12-14T12:00:21.586Z,2.06
2022-12-14T12:02:54.347Z,2.09
2022-12-14T12:05:23.468Z,2.12
2022-12-14T12:07:49.721Z,2.15
2022-12-14T12:10:37.231Z,2.19
2022-12-14T12:13:18.532Z,2.24
2022-12-14T12:15:55.396Z,2.26
2022-12-14T12:18:40.335Z,2.27
2022-12-14T12:21:32.038Z,2.30
2022-12-14T12:24:22.180Z,2.32
2022-12-14T12:27:11.693Z,2.33
2022-12-14T12:29:52.397Z,2.36
2022-12-14T12:32:23.445Z,2.37
2022-12-14T12:34:56.760Z,2.39
2022-12-14T12:37:31.347Z,2.40
2022-12-14T12:40:03.420Z,2.43
2022-12-14T12:42:43.653Z,2.44
2022-12-14T12:45:32.449Z,2.45
2022-12-14T12:48:18.576Z,2.46
2022-12-14T12:50:49.608Z,2.49
2022-12-14T12:53:21.307Z,2.51
2022-12-14T12:55:52.099Z,2.52
2022-12-14T12:58:31.696Z,2.53
2022-12-14T13:01:02.347Z,2.53
2022-12-14T13:03:45.689Z,2.54
2022-12-14T13:06:30.486Z,2.53
2022-12-14T13:09:17.484Z,2.55
2022-12-14T13:11:44.051Z,2.54
2022-12-14T13:14:31.741Z,2.54
2022-12-14T13:17:00.879Z,2.53
2022-12-14T13:19:52.666Z,2.52
2022-12-14T13:22:30.500Z,2.51
2022-12-14T13:25:02.943Z,2.50
2022-12-14T13:27:40.512Z,2.48
2022-12-14T13:30:20.881Z,2.45
2022-12-14T13:32:47.125Z,2.44
2022-12-14T13:35:32.384Z,2.41
2022-12-14T13:38:21.813Z,2.39
2022-12-14T13:41:08.197Z,2.36
2022-12-14T13:44:02.325Z,2.34
2022-12-14T13:46:30.218Z,2.31
2022-12-14T13:49:04.726Z,2.29
2022-12-14T13:51:45.987Z,2.26
2022-12-14T13:54:27.580Z,2.25
2022-12-14T13:57:13.166Z,2.23
2022-12-14T13:59:45.354Z,2.20
2022-12-14T14:02:30.637Z,2.17
2022-12-14T14:05:15.451Z,2.15
2022-12-14T14:07:50.531Z,2.13
2022-12-14T14:10:34.970Z,2.10
2022-12-14T14:13:27.008Z,2.08
2022-12-14T14:16:27.465Z,2.07
2022-12-14T14:19:04.604Z,2.08
2022-12-14T14:22:25.231Z,2.03
2022-12-14T14:25:02.533Z,2.00
2022-12-14T14:27:36.415Z,1.94
2022-12-14T14:30:22.831Z,1.91
2022-12-14T14:32:49.292Z,1.88
2022-12-14T14:35:30.183Z,1.84
2022-12-14T14:37:59.992Z,1.81
2022-12-14T14:41:06.384Z,1.77
2022-12-14T14:43:38.043Z,1.72
2022-12-14T14:46:07.723Z,1.70
2022-12-14T14:48:42.096Z,1.65
2022-12-14T14:51:20.518Z,1.62
2022-12-14T14:53:50.527Z,1.57
2022-12-14T14:56:29.634Z,1.54
2022-12-14T14:59:22.818Z,1.48
2022-12-14T15:02:01.366Z,1.43
2022-12-14T15:04:37.461Z,1.38
2022-12-14T15:07:08.338Z,1.31
2022-12-14T15:09:44.274Z,1.26
2022-12-14T15:12:32.852Z,1.19
2022-12-14T15:15:17.029Z,1.13
2022-12-14T15:17:43.660Z,1.07
2022-12-14T15:20:27.254Z,1.01
2022-12-14T15:22:58.299Z,0.96
2022-12-14T15:25:29.508Z,0.90
2022-12-14T15:28:05.335Z,0.84
2022-12-14T15:30:32.232Z,0.79
2022-12-14T15:33:01.281Z,0.75
2022-12-14T15:35:31.711Z,0.70
2022-12-14T15:38:02.532Z,0.63
2022-12-14T15:40:30.968Z,0.59
2022-12-14T15:43:00.784Z,0.54
2022-12-14T15:45:28.701Z,0.48
2022-12-14T15:47:55.038Z,0.42
2022-12-14T15:50:28.176Z,0.37
2022-12-14T15:52:58.941Z,0.31
2022-12-14T15:56:00.247Z,0.24
2022-12-14T15:58:34.058Z,0.15
2022-12-14T16:01:23.439Z,0.09
2022-12-14T16:03:54.678Z,0.03
2022-12-14T16:06:23.969Z,-0.04
2022-12-14T16:09:03.623Z,-0.10
2022-12-14T16:11:38.861Z,-0.16
2022-12-14T16:14:20.126Z,-0.20
2022-12-14T16:16:47.553Z,-0.26
2022-12-14T16:19:28.309Z,-0.31
2022-12-14T16:22:20.679Z,-0.37
2022-12-14T16:24:58.895Z,-0.42
2022-12-14T16:27:27.800Z,-0.48
2022-12-14T16:30:19.681Z,-0.53
2022-12-14T16:32:50.062Z,-0.58
2022-12-14T16:35:23.399Z,-0.62
2022-12-14T16:37:53.440Z,-0.67
2022-12-14T16:40:32.015Z,-0.72
2022-12-14T16:42:58.630Z,-0.77
2022-12-14T16:46:00.319Z,-0.80
2022-12-14T16:48:28.686Z,-0.87
2022-12-14T16:51:44.382Z,-0.92
2022-12-14T16:54:33.159Z,-0.98
2022-12-14T16:57:01.231Z,-1.04
2022-12-14T16:59:40.789Z,-1.08
2022-12-14T17:02:26.614Z,-1.13
2022-12-14T17:04:53.792Z,-1.18
2022-12-14T17:07:24.669Z,-1.22
2022-12-14T17:09:51.067Z,-1.25
2022-12-14T17:12:18.380Z,-1.30
2022-12-14T17:14:49.804Z,-1.33
2022-12-14T17:17:21.936Z,-1.36
2022-12-14T17:19:48.988Z,-1.38
2022-12-14T17:22:24.577Z,-1.42
2022-12-14T17:24:51.101Z,-1.45
2022-12-14T17:27:20.840Z,-1.48
2022-12-14T17:29:47.156Z,-1.52
2022-12-14T17:32:15.465Z,-1.55
2022-12-14T17:34:42.563Z,-1.59
2022-12-14T17:37:18.492Z,-1.63
2022-12-14T17:39:46.587Z,-1.70
2022-12-14T17:42:15.424Z,-1.75
2022-12-14T17:44:43.962Z,-1.81
2022-12-14T17:47:14.128Z,-1.88
2022-12-14T17:49:42.146Z,-1.97
2022-12-14T17:52:21.101Z,-2.03
2022-12-14T17:54:47.684Z,-2.10
2022-12-14T17:57:20.196Z,-2.15
2022-12-14T17:59:47.748Z,-2.21
2022-12-14T18:02:34.880Z,-2.27
2022-12-14T18:05:01.535Z,-2.33
2022-12-14T18:07:27.921Z,-2.37
2022-12-14T18:09:54.396Z,-2.42
2022-12-14T18:12:23.905Z,-2.46
2022-12-14T18:14:50.992Z,-2.50
2022-12-14T18:17:18.610Z,-2.54
2022-12-14T18:19:44.993Z,-2.57
2022-12-14T18:22:14.668Z,-2.60
2022-12-14T18:24:41.070Z,-2.63
2022-12-14T18:27:07.497Z,-2.66
2022-12-14T18:29:33.978Z,-2.68
2022-12-14T18:32:00.470Z,-2.71
2022-12-14T18:34:26.903Z,-2.74
2022-12-14T18:36:53.591Z,-2.76
2022-12-14T18:39:19.940Z,-2.79
2022-12-14T18:41:46.340Z,-2.82
2022-12-14T18:44:12.985Z,-2.85
2022-12-14T18:46:39.625Z,-2.89
2022-12-14T18:49:06.070Z,-2.91
2022-12-14T18:51:32.502Z,-2.94
2022-12-14T18:54:00.182Z,-2.97
2022-12-14T18:56:28.002Z,-3.00
2022-12-14T18:58:54.674Z,-3.02
2022-12-14T19:01:23.787Z,-3.05
2022-12-14T19:03:51.196Z,-3.09
2022-12-14T19:06:43.707Z,-3.11
2022-12-14T19:09:07.122Z,-3.15
2022-12-14T19:11:38.688Z,-3.20
2022-12-14T19:14:05.095Z,-3.24
2022-12-14T19:16:31.674Z,-3.28
2022-12-14T19:18:58.386Z,-3.33
2022-12-14T19:21:29.297Z,-3.36
2022-12-14T19:23:56.011Z,-3.41
2022-12-14T19:26:22.643Z,-3.44
2022-12-14T19:28:48.991Z,-3.48
2022-12-14T19:31:15.407Z,-3.50
2022-12-14T19:33:41.792Z,-3.54
2022-12-14T19:36:09.190Z,-3.58
2022-12-14T19:38:36.069Z,-3.62
2022-12-14T19:41:06.458Z,-3.64
2022-12-14T19:43:33.554Z,-3.68
2022-12-14T19:46:00.230Z,-3.71
2022-12-14T19:48:26.625Z,-3.75
2022-12-14T19:50:53.128Z,-3.77
2022-12-14T19:53:27.990Z,-3.80
2022-12-14T19:55:54.610Z,-3.83
2022-12-14T19:58:25.190Z,-3.86
2022-12-14T20:00:51.723Z,-3.89
2022-12-14T20:03:18.582Z,-3.92
2022-12-14T20:05:51.503Z,-3.94
2022-12-14T20:08:17.898Z,-3.97
2022-12-14T20:10:44.391Z,-3.99
2022-12-14T20:13:10.701Z,-4.03
2022-12-14T20:15:37.067Z,-4.05
2022-12-14T20:18:04.670Z,-4.07
2022-12-14T20:20:32.002Z,-4.10
2022-12-14T20:22:58.377Z,-4.13
2022-12-14T20:25:24.856Z,-4.15
2022-12-14T20:27:52.119Z,-4.17
2022-12-14T20:30:18.604Z,-4.21
2022-12-14T20:32:44.961Z,-4.23
2022-12-14T20:35:18.518Z,-4.26
2022-12-14T20:37:46.045Z,-4.28
2022-12-14T20:40:13.547Z,-4.32
2022-12-14T20:42:40.083Z,-4.33
2022-12-14T20:45:07.526Z,-4.37
2022-12-14T20:47:34.310Z,-4.38
2022-12-14T20:50:00.701Z,-4.40
2022-12-14T20:52:27.022Z,-4.43
2022-12-14T20:54:53.605Z,-4.45
2022-12-14T20:57:20.111Z,-4.46
2022-12-14T20:59:46.425Z,-4.48
2022-12-14T21:02:17.151Z,-4.50
2022-12-14T21:04:43.626Z,-4.53
2022-12-14T21:07:10.171Z,-4.54
2022-12-14T21:09:36.493Z,-4.56
2022-12-14T21:12:22.012Z,-4.57
2022-12-14T21:14:54.159Z,-4.59
2022-12-14T21:17:22.747Z,-4.60
2022-12-14T21:19:49.420Z,-4.61
2022-12-14T21:22:18.993Z,-4.63
2022-12-14T21:25:03.071Z,-4.65
2022-12-14T21:27:31.006Z,-4.65
2022-12-14T21:29:57.481Z,-4.65
2022-12-14T21:32:24.116Z,-4.67
2022-12-14T21:34:50.755Z,-4.68
2022-12-14T21:37:17.716Z,-4.69
2022-12-14T21:39:51.830Z,-4.70
2022-12-14T21:42:20.749Z,-4.70
2022-12-14T21:44:49.357Z,-4.69
2022-12-14T21:47:17.019Z,-4.69
2022-12-14T21:49:45.162Z,-4.68
2022-12-14T21:52:14.423Z,-4.68
2022-12-14T21:54:41.335Z,-4.69
2022-12-14T21:57:26.514Z,-4.69
2022-12-14T21:59:52.814Z,-4.69
2022-12-14T22:02:22.834Z,-4.70
2022-12-14T22:04:50.059Z,-4.70
2022-12-14T22:07:18.253Z,-4.71
2022-12-14T22:09:49.735Z,-4.72
2022-12-14T22:12:17.728Z,-4.72
2022-12-14T22:14:44.104Z,-4.73
2022-12-14T22:17:13.096Z,-4.76
2022-12-14T22:19:39.489Z,-4.77
2022-12-14T22:22:06.129Z,-4.77
2022-12-14T22:24:32.767Z,-4.78
2022-12-14T22:26:59.396Z,-4.79
2022-12-14T22:29:25.891Z,-4.79
2022-12-14T22:31:52.569Z,-4.80
2022-12-14T22:34:21.442Z,-4.80
2022-12-14T22:36:49.474Z,-4.82
2022-12-14T22:39:17.430Z,-4.83
2022-12-14T22:41:44.083Z,-4.82
2022-12-14T22:44:12.577Z,-4.84
2022-12-14T22:46:40.119Z,-4.84
2022-12-14T22:49:06.953Z,-4.85
2022-12-14T22:51:33.306Z,-4.86
2022-12-14T22:53:59.713Z,-4.87
2022-12-14T22:56:46.297Z,-4.87
2022-12-14T22:59:17.779Z,-4.87
2022-12-14T23:01:49.725Z,-4.88
2022-12-14T23:04:17.351Z,-4.90
2022-12-14T23:06:43.801Z,-4.88
2022-12-14T23:09:28.710Z,-4.90
2022-12-14T23:12:15.065Z,-4.91
2022-12-14T23:15:03.407Z,-4.94
2022-12-14T23:17:48.924Z,-4.94
2022-12-14T23:20:34.145Z,-4.95
2022-12-14T23:23:18.838Z,-4.97
2022-12-14T23:26:03.626Z,-4.98
2022-12-14T23:28:51.078Z,-4.98
2022-12-14T23:31:35.925Z,-4.97
2022-12-14T23:34:20.682Z,-4.98
2022-12-14T23:37:05.303Z,-4.96
2022-12-14T23:39:50.084Z,-4.93
2022-12-14T23:42:34.951Z,-4.90
2022-12-14T23:45:19.735Z,-4.87
2022-12-14T23:48:04.426Z,-4.82
2022-12-14T23:50:49.314Z,-4.78
2022-12-14T23:53:34.294Z,-4.75
2022-12-14T23:56:19.468Z,-4.74
2022-12-14T23:59:04.902Z,-4.73
